createdAt,value
2023-03-19T00:02:02.098Z,10.80
2023-03-19T00:04:32.741Z,10.74
2023-03-19T00:06:59.514Z,10.81
2023-03-19T00:09:27.354Z,10.67
2023-03-19T00:11:53.832Z,10.78
2023-03-19T00:14:20.625Z,10.77
2023-03-19T00:16:47.696Z,10.56
2023-03-19T00:19:14.756Z,10.68
2023-03-19T00:21:41.584Z,10.42
2023-03-19T00:24:09.924Z,10.39
2023-03-19T00:26:37.148Z,10.57
2023-03-19T00:29:05.161Z,10.48
2023-03-19T00:31:32.129Z,10.53
2023-03-19T00:33:59.866Z,10.21
2023-03-19T00:36:28.303Z,10.15
2023-03-19T00:38:57.611Z,10.06
2023-03-19T00:41:24.737Z,9.96
2023-03-19T00:43:56.372Z,10.01
2023-03-19T00:46:24.761Z,9.97
2023-03-19T00:48:55.310Z,9.94
2023-03-19T00:51:23.770Z,9.64
2023-03-19T00:53:51.384Z,9.66
2023-03-19T00:56:19.880Z,10.00
2023-03-19T00:58:47.219Z,9.90
2023-03-19T01:01:16.794Z,9.54
2023-03-19T01:03:45.426Z,9.63
2023-03-19T01:06:12.615Z,9.72
2023-03-19T01:08:39.296Z,9.50
2023-03-19T01:11:12.336Z,9.52
2023-03-19T01:13:39.381Z,9.38
2023-03-19T01:16:06.607Z,9.44
2023-03-19T01:18:33.989Z,9.56
2023-03-19T01:21:01.338Z,9.34
2023-03-19T01:23:30.684Z,9.47
2023-03-19T01:25:57.591Z,9.53
2023-03-19T01:28:26.355Z,9.53
2023-03-19T01:30:53.350Z,9.52
2023-03-19T01:33:40.596Z,9.56
2023-03-19T01:36:16.049Z,9.63
2023-03-19T01:38:58.544Z,9.72
2023-03-19T01:41:25.309Z,9.84
2023-03-19T01:43:55.905Z,9.74
2023-03-19T01:46:48.844Z,9.80
2023-03-19T01:49:51.733Z,9.70
2023-03-19T01:52:23.826Z,9.87
2023-03-19T01:55:17.465Z,9.77
2023-03-19T01:58:06.739Z,9.89
2023-03-19T02:00:57.109Z,9.88
2023-03-19T02:03:25.370Z,9.90
2023-03-19T02:06:23.569Z,9.96
2023-03-19T02:08:52.460Z,10.06
2023-03-19T02:11:20.204Z,9.95
2023-03-19T02:13:47.899Z,9.94
2023-03-19T02:16:15.535Z,9.96
2023-03-19T02:18:43.137Z,9.89
2023-03-19T02:21:14.527Z,9.97
2023-03-19T02:24:08.951Z,9.88
2023-03-19T02:27:02.044Z,9.82
2023-03-19T02:29:29.398Z,9.79
2023-03-19T02:31:58.981Z,9.73
2023-03-19T02:34:25.576Z,9.75
2023-03-19T02:36:57.748Z,9.74
2023-03-19T02:39:39.067Z,9.64
2023-03-19T02:42:06.590Z,9.72
2023-03-19T02:44:33.355Z,9.68
2023-03-19T02:47:00.427Z,9.58
2023-03-19T02:49:27.246Z,9.61
2023-03-19T02:51:53.835Z,9.64
2023-03-19T02:54:20.627Z,9.58
2023-03-19T02:56:49.003Z,9.48
2023-03-19T02:59:15.849Z,9.30
2023-03-19T03:01:42.534Z,9.29
2023-03-19T03:04:09.191Z,9.28
2023-03-19T03:06:35.767Z,9.20
2023-03-19T03:09:02.395Z,9.16
2023-03-19T03:11:29.124Z,9.23
2023-03-19T03:13:56.390Z,8.87
2023-03-19T03:16:23.345Z,9.05
2023-03-19T03:18:50.144Z,9.10
2023-03-19T03:21:21.284Z,9.01
2023-03-19T03:23:48.556Z,8.99
2023-03-19T03:26:15.604Z,8.79
2023-03-19T03:28:43.350Z,8.90
2023-03-19T03:31:10.402Z,8.84
2023-03-19T03:33:39.748Z,8.97
2023-03-19T03:36:07.162Z,8.94
2023-03-19T03:38:34.594Z,8.83
2023-03-19T03:41:01.240Z,8.87
2023-03-19T03:43:27.808Z,8.76
2023-03-19T03:45:54.514Z,8.64
2023-03-19T03:48:21.968Z,8.86
2023-03-19T03:50:49.173Z,8.78
2023-03-19T03:53:19.880Z,8.83
2023-03-19T03:55:46.557Z,8.87
2023-03-19T03:58:14.249Z,8.92
2023-03-19T04:00:41.076Z,8.85
2023-03-19T04:03:07.710Z,8.84
2023-03-19T04:05:34.614Z,8.77
2023-03-19T04:08:01.341Z,8.82
2023-03-19T04:10:28.196Z,8.90
2023-03-19T04:12:54.843Z,8.85
2023-03-19T04:15:22.651Z,8.70
2023-03-19T04:17:51.511Z,8.55
2023-03-19T04:20:18.695Z,8.42
2023-03-19T04:22:45.718Z,8.35
2023-03-19T04:25:12.379Z,8.19
2023-03-19T04:27:39.941Z,8.09
2023-03-19T04:30:08.048Z,8.14
2023-03-19T04:32:35.558Z,8.03
2023-03-19T04:35:03.099Z,8.03
2023-03-19T04:37:30.716Z,8.09
2023-03-19T04:39:58.008Z,8.18
2023-03-19T04:42:24.898Z,8.15
2023-03-19T04:45:02.637Z,8.09
2023-03-19T04:47:29.643Z,7.97
2023-03-19T04:49:59.364Z,7.89
2023-03-19T04:52:26.550Z,7.91
2023-03-19T04:54:54.358Z,7.73
2023-03-19T04:57:21.359Z,7.85
2023-03-19T04:59:49.656Z,7.74
2023-03-19T05:02:17.207Z,7.63
2023-03-19T05:04:44.798Z,7.62
2023-03-19T05:07:13.905Z,7.74
2023-03-19T05:09:43.726Z,7.73
2023-03-19T05:12:11.678Z,7.64
2023-03-19T05:14:43.587Z,7.62
2023-03-19T05:17:21.961Z,7.62
2023-03-19T05:19:57.111Z,7.59
2023-03-19T05:22:25.066Z,7.54
2023-03-19T05:24:56.425Z,7.50
2023-03-19T05:27:23.611Z,7.47
2023-03-19T05:30:01.471Z,7.43
2023-03-19T05:32:48.336Z,7.42
2023-03-19T05:35:25.935Z,7.21
2023-03-19T05:37:52.792Z,7.41
2023-03-19T05:40:20.086Z,7.38
2023-03-19T05:42:48.275Z,7.38
2023-03-19T05:45:17.888Z,7.40
2023-03-19T05:47:50.110Z,7.48
2023-03-19T05:50:18.853Z,7.45
2023-03-19T05:53:05.466Z,7.48
2023-03-19T05:55:35.469Z,7.57
2023-03-19T05:58:07.996Z,7.59
2023-03-19T06:00:35.530Z,7.82
2023-03-19T06:03:02.406Z,7.94
2023-03-19T06:05:55.425Z,8.19
2023-03-19T06:08:36.005Z,8.35
2023-03-19T06:11:10.703Z,8.43
2023-03-19T06:13:38.087Z,8.51
2023-03-19T06:16:07.398Z,8.29
2023-03-19T06:18:41.036Z,8.59
2023-03-19T06:21:11.461Z,8.50
2023-03-19T06:23:38.499Z,8.66
2023-03-19T06:26:07.011Z,8.71
2023-03-19T06:28:42.359Z,8.94
2023-03-19T06:31:09.360Z,9.04
2023-03-19T06:34:08.595Z,9.14
2023-03-19T06:36:40.951Z,9.15
2023-03-19T06:39:10.387Z,9.17
2023-03-19T06:41:37.164Z,9.11
2023-03-19T06:44:30.058Z,9.21
2023-03-19T06:46:56.783Z,9.23
2023-03-19T06:49:23.551Z,9.29
2023-03-19T06:51:50.384Z,9.37
2023-03-19T06:54:17.239Z,9.42
2023-03-19T06:56:44.889Z,9.51
2023-03-19T06:59:13.157Z,9.65
2023-03-19T07:01:43.145Z,9.71
2023-03-19T07:04:10.943Z,9.65
2023-03-19T07:06:37.809Z,9.65
2023-03-19T07:09:04.996Z,9.79
2023-03-19T07:11:35.236Z,9.45
2023-03-19T07:14:03.010Z,9.48
2023-03-19T07:16:29.620Z,9.66
2023-03-19T07:18:56.849Z,9.69
2023-03-19T07:21:23.644Z,9.82
2023-03-19T07:23:53.148Z,9.84
2023-03-19T07:26:19.899Z,9.90
2023-03-19T07:28:46.695Z,10.09
2023-03-19T07:31:13.404Z,10.20
2023-03-19T07:33:40.325Z,10.56
2023-03-19T07:36:07.967Z,10.82
2023-03-19T07:38:34.615Z,11.20
2023-03-19T07:41:02.907Z,11.27
2023-03-19T07:43:31.333Z,11.82
2023-03-19T07:45:58.943Z,12.20
2023-03-19T07:48:25.616Z,12.67
2023-03-19T07:50:52.525Z,13.15
2023-03-19T07:53:19.289Z,13.58
2023-03-19T07:55:47.161Z,14.09
2023-03-19T07:58:14.045Z,14.44
2023-03-19T08:00:41.053Z,14.54
2023-03-19T08:03:07.878Z,15.04
2023-03-19T08:05:34.547Z,15.47
2023-03-19T08:08:01.216Z,15.75
2023-03-19T08:10:27.736Z,16.20
2023-03-19T08:12:54.396Z,16.14
2023-03-19T08:15:21.419Z,16.62
2023-03-19T08:17:49.096Z,16.67
2023-03-19T08:20:16.783Z,16.76
2023-03-19T08:22:43.783Z,16.81
2023-03-19T08:25:11.260Z,17.44
2023-03-19T08:27:38.181Z,17.69
2023-03-19T08:30:07.394Z,18.22
2023-03-19T08:32:34.557Z,18.25
2023-03-19T08:35:01.281Z,18.35
2023-03-19T08:37:28.249Z,18.54
2023-03-19T08:39:54.869Z,18.79
2023-03-19T08:42:22.634Z,18.71
2023-03-19T08:44:50.523Z,19.04
2023-03-19T08:47:17.112Z,19.06
2023-03-19T08:49:43.720Z,19.26
2023-03-19T08:52:10.305Z,19.79
2023-03-19T08:54:36.962Z,20.42
2023-03-19T08:57:04.192Z,20.94
2023-03-19T08:59:33.796Z,21.28
2023-03-19T09:02:01.795Z,21.19
2023-03-19T09:04:28.881Z,21.33
2023-03-19T09:06:55.877Z,21.68
2023-03-19T09:09:24.199Z,21.95
2023-03-19T09:11:51.158Z,20.94
2023-03-19T09:14:19.921Z,19.75
2023-03-19T09:16:46.944Z,19.62
2023-03-19T09:19:13.961Z,20.30
2023-03-19T09:21:41.321Z,20.99
2023-03-19T09:24:08.216Z,20.69
2023-03-19T09:26:36.231Z,21.56
2023-03-19T09:29:03.643Z,22.17
2023-03-19T09:31:30.708Z,21.65
2023-03-19T09:33:59.399Z,22.19
2023-03-19T09:36:26.598Z,21.94
2023-03-19T09:38:53.308Z,21.35
2023-03-19T09:42:04.960Z,21.47
2023-03-19T09:44:40.860Z,21.26
2023-03-19T09:47:37.307Z,20.87
2023-03-19T09:50:15.453Z,21.28
2023-03-19T09:52:53.971Z,21.30
2023-03-19T09:55:23.635Z,21.59
2023-03-19T09:57:53.315Z,21.65
2023-03-19T10:00:36.974Z,22.08
2023-03-19T10:03:43.372Z,22.40
2023-03-19T10:06:18.905Z,22.05
2023-03-19T10:08:51.881Z,21.97
2023-03-19T10:11:24.808Z,23.13
2023-03-19T10:14:18.735Z,23.28
2023-03-19T10:16:48.175Z,23.47
2023-03-19T10:19:22.371Z,23.65
2023-03-19T10:21:57.080Z,23.64
2023-03-19T10:24:41.940Z,23.34
2023-03-19T10:27:18.887Z,22.95
2023-03-19T10:29:45.602Z,23.91
2023-03-19T10:32:34.768Z,24.15
2023-03-19T10:35:24.393Z,23.81
2023-03-19T10:37:51.049Z,24.90
2023-03-19T10:40:40.130Z,25.16
2023-03-19T10:43:17.662Z,24.78
2023-03-19T10:45:44.351Z,24.02
2023-03-19T10:48:17.638Z,24.36
2023-03-19T10:50:47.729Z,24.76
2023-03-19T10:53:14.289Z,23.50
2023-03-19T10:56:15.474Z,23.69
2023-03-19T10:59:05.877Z,22.61
2023-03-19T11:01:42.939Z,22.33
2023-03-19T11:04:18.098Z,23.49
2023-03-19T11:06:50.319Z,24.38
2023-03-19T11:09:27.133Z,24.14
2023-03-19T11:11:59.089Z,23.10
2023-03-19T11:14:31.644Z,21.75
2023-03-19T11:17:22.718Z,21.10
2023-03-19T11:19:57.874Z,21.67
2023-03-19T11:22:32.857Z,21.91
2023-03-19T11:25:18.992Z,21.85
2023-03-19T11:27:59.415Z,21.66
2023-03-19T11:30:33.450Z,21.30
2023-03-19T11:33:23.563Z,20.77
2023-03-19T11:35:59.726Z,20.73
2023-03-19T11:39:01.877Z,20.90
2023-03-19T11:42:07.352Z,21.25
2023-03-19T11:44:49.363Z,20.88
2023-03-19T11:47:26.649Z,21.66
2023-03-19T11:50:03.124Z,21.84
2023-03-19T11:52:48.777Z,21.87
2023-03-19T11:55:23.018Z,22.13
2023-03-19T11:58:08.231Z,22.08
2023-03-19T12:00:51.435Z,21.55
2023-03-19T12:03:21.975Z,21.68
2023-03-19T12:05:56.724Z,21.23
2023-03-19T12:08:29.793Z,20.75
2023-03-19T12:11:03.963Z,20.49
2023-03-19T12:13:55.301Z,20.16
2023-03-19T12:16:24.579Z,20.15
2023-03-19T12:19:03.018Z,19.90
2023-03-19T12:21:42.009Z,19.12
2023-03-19T12:24:43.877Z,19.02
2023-03-19T12:27:43.506Z,18.75
2023-03-19T12:30:18.371Z,18.47
2023-03-19T12:32:54.204Z,18.20
2023-03-19T12:35:29.581Z,18.29
2023-03-19T12:38:03.149Z,18.38
2023-03-19T12:40:51.583Z,18.37
2023-03-19T12:43:25.507Z,18.41
2023-03-19T12:46:02.221Z,18.28
2023-03-19T12:48:33.672Z,18.11
2023-03-19T12:51:09.330Z,18.01
2023-03-19T12:53:45.524Z,18.05
2023-03-19T12:56:24.921Z,17.98
2023-03-19T12:59:23.934Z,18.01
2023-03-19T13:02:08.817Z,18.10
2023-03-19T13:04:40.305Z,18.10
2023-03-19T13:07:50.980Z,18.24
2023-03-19T13:10:22.144Z,18.12
2023-03-19T13:12:51.236Z,18.09
2023-03-19T13:15:32.834Z,18.33
2023-03-19T13:18:17.608Z,18.36
2023-03-19T13:21:06.162Z,18.10
2023-03-19T13:23:35.984Z,17.99
2023-03-19T13:26:07.929Z,17.92
2023-03-19T13:28:37.667Z,18.19
2023-03-19T13:31:05.980Z,18.34
2023-03-19T13:33:35.213Z,18.46
2023-03-19T13:36:05.756Z,18.72
2023-03-19T13:38:46.158Z,18.84
2023-03-19T13:41:44.888Z,19.02
2023-03-19T13:44:48.579Z,19.39
2023-03-19T13:47:44.603Z,19.68
2023-03-19T13:50:27.199Z,19.44
2023-03-19T13:53:33.668Z,19.70
2023-03-19T13:56:22.519Z,20.00
2023-03-19T13:59:24.145Z,20.10
2023-03-19T14:01:50.984Z,20.19
2023-03-19T14:04:30.934Z,20.07
2023-03-19T14:07:19.985Z,20.27
2023-03-19T14:09:49.925Z,20.17
2023-03-19T14:12:24.958Z,19.94
2023-03-19T14:14:54.478Z,19.79
2023-03-19T14:17:23.714Z,19.93
2023-03-19T14:19:52.453Z,20.71
2023-03-19T14:22:45.000Z,20.90
2023-03-19T14:25:21.387Z,21.02
2023-03-19T14:27:55.302Z,20.20
2023-03-19T14:30:24.621Z,20.22
2023-03-19T14:32:53.185Z,19.99
2023-03-19T14:35:20.605Z,19.79
2023-03-19T14:37:49.175Z,19.88
2023-03-19T14:40:32.539Z,19.47
2023-03-19T14:43:09.999Z,19.16
2023-03-19T14:46:05.086Z,19.02
2023-03-19T14:49:10.586Z,18.91
2023-03-19T14:51:50.593Z,18.91
2023-03-19T14:54:28.144Z,19.09
2023-03-19T14:56:56.711Z,19.07
2023-03-19T14:59:23.284Z,18.96
2023-03-19T15:01:52.692Z,18.66
2023-03-19T15:04:23.072Z,19.17
2023-03-19T15:06:55.605Z,19.50
2023-03-19T15:09:27.241Z,19.71
2023-03-19T15:12:12.780Z,20.56
2023-03-19T15:14:42.340Z,21.33
2023-03-19T15:17:23.331Z,21.98
2023-03-19T15:19:50.797Z,21.61
2023-03-19T15:22:34.805Z,21.39
2023-03-19T15:25:10.984Z,21.14
2023-03-19T15:27:38.115Z,20.84
2023-03-19T15:30:24.872Z,20.58
2023-03-19T15:33:07.860Z,20.15
2023-03-19T15:35:36.629Z,20.04
2023-03-19T15:38:07.556Z,19.71
2023-03-19T15:40:36.915Z,19.37
2023-03-19T15:43:04.267Z,19.20
2023-03-19T15:45:33.910Z,18.69
2023-03-19T15:48:19.969Z,18.53
2023-03-19T15:50:50.867Z,18.32
2023-03-19T15:53:24.617Z,18.21
2023-03-19T15:55:54.146Z,17.95
2023-03-19T15:58:25.842Z,17.73
2023-03-19T16:00:54.111Z,17.75
2023-03-19T16:03:27.280Z,17.71
2023-03-19T16:06:06.530Z,17.52
2023-03-19T16:08:33.968Z,17.31
2023-03-19T16:11:26.082Z,17.39
2023-03-19T16:14:01.862Z,17.22
2023-03-19T16:16:31.355Z,17.04
2023-03-19T16:18:59.275Z,17.07
2023-03-19T16:21:31.861Z,17.12
2023-03-19T16:24:01.997Z,16.79
2023-03-19T16:26:43.738Z,16.81
2023-03-19T16:29:23.229Z,16.62
2023-03-19T16:32:02.252Z,16.72
2023-03-19T16:34:46.494Z,16.53
2023-03-19T16:37:31.836Z,16.42
2023-03-19T16:40:20.553Z,16.27
2023-03-19T16:42:50.753Z,16.10
2023-03-19T16:45:17.704Z,16.15
2023-03-19T16:47:51.771Z,16.20
2023-03-19T16:50:21.067Z,16.12
2023-03-19T16:52:48.850Z,15.96
2023-03-19T16:55:21.558Z,15.93
2023-03-19T16:57:55.916Z,15.82
2023-03-19T17:00:24.581Z,15.61
2023-03-19T17:02:57.869Z,15.76
2023-03-19T17:05:26.211Z,15.26
2023-03-19T17:07:55.504Z,15.19
2023-03-19T17:10:25.464Z,15.31
2023-03-19T17:12:56.323Z,15.13
2023-03-19T17:15:41.954Z,15.18
2023-03-19T17:18:20.681Z,15.12
2023-03-19T17:21:09.167Z,15.15
2023-03-19T17:23:37.851Z,15.10
2023-03-19T17:26:23.589Z,14.99
2023-03-19T17:28:50.417Z,14.92
2023-03-19T17:31:31.843Z,14.93
2023-03-19T17:34:03.055Z,14.96
2023-03-19T17:36:30.382Z,14.88
2023-03-19T17:38:57.161Z,14.78
2023-03-19T17:41:24.125Z,14.87
2023-03-19T17:43:50.803Z,14.64
2023-03-19T17:46:20.435Z,14.76
2023-03-19T17:48:48.454Z,14.79
2023-03-19T17:51:16.109Z,14.73
2023-03-19T17:53:48.330Z,14.79
2023-03-19T17:56:16.774Z,14.70
2023-03-19T17:58:43.480Z,14.64
2023-03-19T18:01:14.151Z,14.60
2023-03-19T18:03:40.889Z,14.40
2023-03-19T18:06:16.153Z,14.62
2023-03-19T18:08:43.828Z,14.61
2023-03-19T18:11:10.763Z,14.61
2023-03-19T18:13:37.844Z,14.57
2023-03-19T18:16:11.985Z,14.63
2023-03-19T18:18:39.040Z,14.57
2023-03-19T18:21:05.956Z,14.54
2023-03-19T18:23:32.586Z,14.54
2023-03-19T18:25:59.248Z,14.55
2023-03-19T18:28:25.836Z,14.54
2023-03-19T18:30:52.464Z,14.55
2023-03-19T18:33:27.220Z,14.56
2023-03-19T18:35:55.536Z,14.56
2023-03-19T18:38:24.521Z,14.39
2023-03-19T18:40:52.225Z,14.35
2023-03-19T18:43:18.868Z,14.39
2023-03-19T18:45:48.475Z,14.54
2023-03-19T18:48:23.809Z,14.53
2023-03-19T18:50:51.768Z,14.43
2023-03-19T18:53:18.568Z,14.44
2023-03-19T18:55:46.196Z,14.38
2023-03-19T18:58:20.538Z,14.36
2023-03-19T19:00:47.856Z,14.31
2023-03-19T19:03:18.160Z,14.05
2023-03-19T19:05:44.805Z,14.10
2023-03-19T19:08:20.550Z,14.05
2023-03-19T19:10:53.315Z,14.12
2023-03-19T19:13:23.740Z,14.08
2023-03-19T19:15:54.665Z,13.86
2023-03-19T19:18:25.003Z,14.00
2023-03-19T19:20:53.258Z,13.99
2023-03-19T19:23:21.953Z,13.96
2023-03-19T19:25:52.429Z,13.99
2023-03-19T19:28:19.444Z,13.98
2023-03-19T19:30:47.207Z,13.99
2023-03-19T19:33:17.097Z,13.94
2023-03-19T19:35:43.929Z,13.88
2023-03-19T19:38:10.678Z,13.82
2023-03-19T19:40:37.530Z,13.69
2023-03-19T19:43:04.417Z,14.01
2023-03-19T19:45:38.698Z,14.01
2023-03-19T19:48:13.617Z,13.96
2023-03-19T19:50:40.536Z,13.92
2023-03-19T19:53:07.139Z,13.92
2023-03-19T19:55:34.082Z,13.95
2023-03-19T19:58:01.635Z,13.96
2023-03-19T20:00:30.859Z,14.01
2023-03-19T20:02:59.476Z,13.95
2023-03-19T20:05:31.891Z,13.92
2023-03-19T20:08:01.039Z,13.98
2023-03-19T20:10:30.189Z,13.97
2023-03-19T20:13:01.222Z,13.84
2023-03-19T20:15:34.993Z,13.90
2023-03-19T20:18:03.292Z,13.85
2023-03-19T20:20:32.505Z,13.81
2023-03-19T20:23:01.585Z,13.86
2023-03-19T20:25:32.533Z,13.81
2023-03-19T20:28:01.874Z,13.77
2023-03-19T20:30:47.303Z,13.66
2023-03-19T20:33:14.220Z,13.67
2023-03-19T20:35:41.264Z,13.59
2023-03-19T20:38:08.194Z,13.57
2023-03-19T20:40:39.281Z,13.53
2023-03-19T20:43:07.762Z,13.42
2023-03-19T20:45:37.719Z,13.38
2023-03-19T20:48:13.710Z,13.48
2023-03-19T20:50:40.657Z,13.52
2023-03-19T20:53:07.512Z,13.53
2023-03-19T20:55:36.546Z,13.59
2023-03-19T20:58:21.841Z,13.58
2023-03-19T21:00:48.750Z,13.64
2023-03-19T21:03:23.044Z,13.59
2023-03-19T21:05:55.774Z,13.62
2023-03-19T21:08:32.545Z,13.59
2023-03-19T21:11:00.202Z,13.62
2023-03-19T21:13:27.540Z,13.65
2023-03-19T21:15:54.788Z,13.48
2023-03-19T21:18:21.849Z,13.58
2023-03-19T21:20:54.863Z,13.64
2023-03-19T21:23:34.972Z,13.41
2023-03-19T21:26:23.973Z,13.43
2023-03-19T21:28:55.518Z,13.41
2023-03-19T21:31:22.731Z,13.29
2023-03-19T21:33:51.659Z,13.37
2023-03-19T21:36:18.652Z,13.45
2023-03-19T21:38:45.665Z,13.45
2023-03-19T21:41:23.858Z,13.41
2023-03-19T21:43:54.891Z,13.41
2023-03-19T21:46:25.349Z,13.33
2023-03-19T21:48:54.450Z,13.29
2023-03-19T21:51:22.556Z,13.30
2023-03-19T21:53:49.752Z,13.14
2023-03-19T21:56:23.177Z,13.14
2023-03-19T21:58:53.219Z,12.95
2023-03-19T22:01:23.653Z,12.84
2023-03-19T22:03:52.411Z,12.81
2023-03-19T22:06:19.172Z,12.96
2023-03-19T22:08:48.056Z,13.04
2023-03-19T22:11:24.484Z,13.01
2023-03-19T22:13:51.303Z,12.92
2023-03-19T22:16:21.137Z,13.03
2023-03-19T22:18:48.175Z,12.93
2023-03-19T22:21:21.615Z,12.96
2023-03-19T22:23:48.364Z,12.88
2023-03-19T22:26:29.989Z,12.91
2023-03-19T22:29:00.767Z,12.87
2023-03-19T22:31:28.000Z,12.77
2023-03-19T22:33:54.952Z,12.87
2023-03-19T22:36:21.700Z,12.86
2023-03-19T22:38:48.931Z,12.85
2023-03-19T22:41:27.223Z,12.84
2023-03-19T22:43:55.071Z,12.86
2023-03-19T22:46:22.219Z,12.87
2023-03-19T22:48:52.610Z,12.57
2023-03-19T22:51:24.161Z,12.82
2023-03-19T22:53:51.434Z,12.79
2023-03-19T22:56:19.255Z,12.73
2023-03-19T22:58:47.566Z,12.61
2023-03-19T23:01:29.308Z,12.59
2023-03-19T23:03:56.994Z,12.52
2023-03-19T23:06:30.668Z,12.68
2023-03-19T23:08:58.393Z,12.51
2023-03-19T23:11:25.512Z,12.69
2023-03-19T23:13:52.565Z,12.40
2023-03-19T23:16:25.074Z,12.66
2023-03-19T23:18:53.293Z,12.38
2023-03-19T23:21:20.858Z,12.33
2023-03-19T23:23:47.467Z,12.17
2023-03-19T23:26:26.790Z,12.25
2023-03-19T23:28:54.453Z,12.19
2023-03-19T23:31:21.165Z,12.26
2023-03-19T23:33:47.856Z,12.29
2023-03-19T23:36:14.877Z,12.39
2023-03-19T23:38:42.681Z,12.17
2023-03-19T23:41:22.266Z,12.34
2023-03-19T23:43:48.936Z,12.29
2023-03-19T23:46:15.939Z,12.12
2023-03-19T23:48:42.969Z,12.25
2023-03-19T23:51:14.108Z,12.12
2023-03-19T23:53:42.639Z,11.85
2023-03-19T23:56:16.692Z,12.15
2023-03-19T23:58:43.909Z,11.85
